Welcome to Caribbean Wings!

Know this module!

Admissions Login


 METAR AND TAF INFORMATION
METAR FOR MMMX
ADDS - METARS form results

(0004 UTC 19 July 2019)
Data provider http://aviationweather.gov/metar/data/
 
METAR text: MMMX 182350Z 35013KT 5SM -TSRA BKN020CB OVC080 17/10 A3025 NOSIG RMK SLP093 57008 965 61175 8/96/ HZY OCNL LTIGCCG OVHD
Conditions at: MMMX (MEXICO CITY/LICE, MX) observed 2350 UTC 18 July 2019
Temperature: 17.0°C (63°F)
Dewpoint: 10.0°C (50°F) [RH = 63%]
Pressure (altimeter): 30.25 inches Hg (1024.5 mb)
[Sea-level pressure: 1009.3 mb]
Winds: from the N (350 degrees) at 15 MPH (13 knots; 6.7 m/s)
Visibility: 5 miles ( 8 km)
Ceiling: 2000 feet AGL
Clouds: broken clouds at 2000 feet AGL
overcast cloud deck at 8000 feet AGL
Weather: -TSRA  (light rain associated with thunderstorm(s))

METAR text: MMMX 182340Z 33010KT 5SM -TSRA BKN020CB OVC080 16/12 A3024 NOSIG RMK 8/96/ HZY RAB36
Conditions at: MMMX (MEXICO CITY/LICE, MX) observed 2340 UTC 18 July 2019
Temperature: 16.0°C (61°F)
Dewpoint: 12.0°C (54°F) [RH = 77%]
Pressure (altimeter): 30.24 inches Hg (1024.1 mb)
Winds: from the NNW (330 degrees) at 12 MPH (10 knots; 5.1 m/s)
Visibility: 5 miles ( 8 km)
Ceiling: 2000 feet AGL
Clouds: broken clouds at 2000 feet AGL
overcast cloud deck at 8000 feet AGL
Weather: -TSRA  (light rain associated with thunderstorm(s))

METAR text: MMMX 182331Z 36011G23KT 4SM TSRA BKN020CB OVC080 15/12 A3025 NOSIG RMK 8/96/ HZY GRE29 TSB30 LTGICCC OVHD
Conditions at: MMMX (MEXICO CITY/LICE, MX) observed 2331 UTC 18 July 2019
Temperature: 15.0°C (59°F)
Dewpoint: 12.0°C (54°F) [RH = 82%]
Pressure (altimeter): 30.25 inches Hg (1024.5 mb)
Winds: from the N (360 degrees) at 13 MPH (11 knots; 5.7 m/s)
gusting to 26 MPH (23 knots; 11.8 m/s)
Visibility: 4 miles ( 6 km)
Ceiling: 2000 feet AGL
Clouds: broken clouds at 2000 feet AGL
overcast cloud deck at 8000 feet AGL
Weather: TSRA  (rain associated with thunderstorm(s))

METAR text: MMMX 182324Z 35010G21KT 4SM RA GR BKN020CB OVC080 14/11 A3026 NOSIG RMK 8/96/ HZY
Conditions at: MMMX (MEXICO CITY/LICE, MX) observed 2324 UTC 18 July 2019
Temperature: 14.0°C (57°F)
Dewpoint: 11.0°C (52°F) [RH = 82%]
Pressure (altimeter): 30.26 inches Hg (1024.8 mb)
Winds: from the N (350 degrees) at 12 MPH (10 knots; 5.1 m/s)
gusting to 24 MPH (21 knots; 10.8 m/s)
Visibility: 4 miles ( 6 km)
Ceiling: 2000 feet AGL
Clouds: broken clouds at 2000 feet AGL
overcast cloud deck at 8000 feet AGL
Weather: RA GR  (moderate rain, hail)

METAR text: MMMX 182317Z 33014G24KT 4SM RA GR BKN020CB OVC080 17/10 A3025 NOSIG RMK 8/96/ HZY GRB15
Conditions at: MMMX (MEXICO CITY/LICE, MX) observed 2317 UTC 18 July 2019
Temperature: 17.0°C (63°F)
Dewpoint: 10.0°C (50°F) [RH = 63%]
Pressure (altimeter): 30.25 inches Hg (1024.5 mb)
Winds: from the NNW (330 degrees) at 16 MPH (14 knots; 7.2 m/s)
gusting to 28 MPH (24 knots; 12.3 m/s)
Visibility: 4 miles ( 6 km)
Ceiling: 2000 feet AGL
Clouds: broken clouds at 2000 feet AGL
overcast cloud deck at 8000 feet AGL
Weather: RA GR  (moderate rain, hail)

METAR text: MMMX 182313Z 33011G21KT 5SM RA BKN020CB OVC080 18/08 A3025 NOSIG RMK 8/36/ HZY RAB10
Conditions at: MMMX (MEXICO CITY/LICE, MX) observed 2313 UTC 18 July 2019
Temperature: 18.0°C (64°F)
Dewpoint: 8.0°C (46°F) [RH = 52%]
Pressure (altimeter): 30.25 inches Hg (1024.5 mb)
Winds: from the NNW (330 degrees) at 13 MPH (11 knots; 5.7 m/s)
gusting to 24 MPH (21 knots; 10.8 m/s)
Visibility: 5 miles ( 8 km)
Ceiling: 2000 feet AGL
Clouds: broken clouds at 2000 feet AGL
overcast cloud deck at 8000 feet AGL
Weather: RA  (moderate rain)

Forecast for: MMMX (MEXICO CITY/LICE, MX)
Text: TAF MMMX 182328Z 1900/2006 33015KT 5SM TSRA BKN020CB BKN080 TX24/1921Z TN15/1912Z
Forecast period: 0000 to 0600 UTC 19 July 2019
Forecast type: FROM: standard forecast or significant change
Winds: from the NNW (330 degrees) at 17 MPH (15 knots; 7.7 m/s)
Visibility: 5 miles (8 km)
Ceiling: 2000 feet AGL
Clouds: broken clouds at 2000 feet AGL
broken clouds at 8000 feet AGL
Weather: TSRA  (rain associated with thunderstorm(s))
Text: TEMPO 1900/1904 3SM TSRA
Forecast period: 0000 to 0400 UTC 19 July 2019
Forecast type: TEMPORARY: The following changes expected for less than half the time period
Visibility: 3 miles (5 km)
Ceiling: unknown
Clouds: missing
Weather: TSRA  (rain associated with thunderstorm(s))
Text: FM190600 24005KT P6SM VC -RA BKN020 BKN080
Forecast period: 0600 to 1200 UTC 19 July 2019
Forecast type: FROM: standard forecast or significant change
Winds: from the WSW (240 degrees) at 6 MPH (5 knots; 2.6 m/s)
Visibility: 6 or more miles 10+ km)
Ceiling: 2000 feet AGL
Clouds: broken clouds at 2000 feet AGL
broken clouds at 8000 feet AGL
Weather: VC -RA  (vicinity, light rain)
Text: TEMPO 1906/1908 6SM -RA
Forecast period: 0600 to 0800 UTC 19 July 2019
Forecast type: TEMPORARY: The following changes expected for less than half the time period
Visibility: 6 miles (10 km)
Ceiling: unknown
Clouds: missing
Weather: -RA  (light rain)
Text: FM191200 15005KT 5SM HZ BKN020
Forecast period: 1200 to 1800 UTC 19 July 2019
Forecast type: FROM: standard forecast or significant change
Winds: from the SSE (150 degrees) at 6 MPH (5 knots; 2.6 m/s)
Visibility: 5 miles (8 km)
Ceiling: 2000 feet AGL
Clouds: broken clouds at 2000 feet AGL
Weather: HZ  (haze)
Text: FM191800 14010KT P6SM BKN020CB BKN080
Forecast period: 1800 UTC 19 July 2019 to 0600 UTC 20 July 2019
Forecast type: FROM: standard forecast or significant change
Winds: from the SE (140 degrees) at 12 MPH (10 knots; 5.1 m/s)
Visibility: 6 or more miles 10+ km)
Ceiling: 2000 feet AGL
Clouds: broken clouds at 2000 feet AGL
broken clouds at 8000 feet AGL
Weather: no significant weather forecast for this period
Text: TEMPO 1921/2001 3SM TSRA
Forecast period: 2100 UTC 19 July 2019 to 0100 UTC 20 July 2019
Forecast type: TEMPORARY: The following changes expected for less than half the time period
Visibility: 3 miles (5 km)
Ceiling: unknown
Clouds: missing
Weather: TSRA  (rain associated with thunderstorm(s))

 AIRPORT MAP

 RUNWAY INFORMATION
Runway 05L Runway length 12966 ft Runway width 148 ft
Runway elevation 7309 ft Runway displaced threshold 1034 ft Runway heading 59
Runway 23R Runway length 12966 ft Runway width 148 ft
Runway elevation 7311 ft Runway displaced threshold 1641 ft Runway heading 239
Runway 05R Runway length 12795 ft Runway width 148 ft
Runway elevation 7316 ft Runway displaced threshold 1493 ft Runway heading 59
Runway 23L Runway length 12795 ft Runway width 148 ft
Runway elevation 7295 ft Runway displaced threshold 0 ft Runway heading 239

 AIRPORT FREQUENCIES
Type APP Name MEXICO APP Frequency 121.2 MHZ
Type ARR Name MEXICO ARR Frequency 129.6 MHZ
Type ATIS Name ATIS Frequency 127.65 MHZ
Type CLD Name MEXICO CLN Frequency 122.1 MHZ
Type DEP Name MEXICO DEP Frequency 120.5 MHZ
Type GND Name GND Frequency 121 MHZ
Type RDO Name MEXICO INF Frequency 126.9 MHZ
Type TWR Name MEXICO TWR Frequency 118.55 MHZ

 AIRPORT NEAR NAVIGATION AIDS
Type VOR-DME Name Mexico Frequency 115600 KHZ
Type NDB Name Plaza Frequency 370 KHZ
Type NDB Name Tepexpan Frequency 359 KHZ